Strang, Nebraska
Current Conditions -  °F | °C
As of 11:55 AM on Sunday 21 Dec 2014 (Local Time) from KHJH Reporting Station
Haze Haze  
Wind Chill: 32°   Ceiling: 500
Heat Index: 40°   Visibility: 3mi
Dew Point: 38°   Wind: 15mph
Humidity: 92%   Direction: 190°S
Pressure: 29.8"   Gusts: 25mph
Location:  40.42°N, 97.59°W
Report Text: KHJH 211755Z AUTO 19013G22KT 3SM BR OVC005 05/04 A2980 RMK AO2 T00470035 10047 20022
Loading
Personal Weather Stations






























Interactive Weather Map New forecast layout! Learn more

10-Day Weather Forecast

Advertisements
Track Severe Weather on mobile